sensor_id;sensor_type;location;lat;lon;timestamp;P1;durP1;ratioP1;P2;durP2;ratioP2
16809;SDS011;51744;50.872;4.730;2023-03-17T00:02:41;5.32;;;3.92;;
16809;SDS011;51744;50.872;4.730;2023-03-17T00:05:32;4.45;;;3.28;;
16809;SDS011;51744;50.872;4.730;2023-03-17T00:08:21;4.10;;;2.80;;
16809;SDS011;51744;50.872;4.730;2023-03-17T00:11:11;4.07;;;2.10;;
16809;SDS011;51744;50.872;4.730;2023-03-17T00:13:59;3.67;;;2.17;;
16809;SDS011;51744;50.872;4.730;2023-03-17T00:16:49;3.37;;;2.30;;
16809;SDS011;51744;50.872;4.730;2023-03-17T00:19:38;3.13;;;2.20;;
16809;SDS011;51744;50.872;4.730;2023-03-17T00:22:27;4.93;;;2.75;;
16809;SDS011;51744;50.872;4.730;2023-03-17T00:25:16;4.32;;;2.40;;
16809;SDS011;51744;50.872;4.730;2023-03-17T00:28:08;2.83;;;2.30;;
16809;SDS011;51744;50.872;4.730;2023-03-17T00:31:01;3.65;;;2.60;;
16809;SDS011;51744;50.872;4.730;2023-03-17T00:33:59;2.63;;;2.40;;
16809;SDS011;51744;50.872;4.730;2023-03-17T00:36:48;2.70;;;2.13;;
16809;SDS011;51744;50.872;4.730;2023-03-17T00:39:36;5.38;;;3.30;;
16809;SDS011;51744;50.872;4.730;2023-03-17T00:42:24;4.90;;;2.80;;
16809;SDS011;51744;50.872;4.730;2023-03-17T00:45:12;4.47;;;2.25;;
16809;SDS011;51744;50.872;4.730;2023-03-17T00:48:01;3.43;;;2.23;;
16809;SDS011;51744;50.872;4.730;2023-03-17T00:50:50;3.25;;;2.20;;
16809;SDS011;51744;50.872;4.730;2023-03-17T00:53:37;5.17;;;3.60;;
16809;SDS011;51744;50.872;4.730;2023-03-17T00:56:25;4.88;;;4.10;;
16809;SDS011;51744;50.872;4.730;2023-03-17T00:59:15;3.90;;;3.10;;
16809;SDS011;51744;50.872;4.730;2023-03-17T01:02:07;3.75;;;2.30;;
16809;SDS011;51744;50.872;4.730;2023-03-17T01:04:56;3.88;;;2.90;;
16809;SDS011;51744;50.872;4.730;2023-03-17T01:07:53;5.30;;;4.13;;
16809;SDS011;51744;50.872;4.730;2023-03-17T01:10:43;5.38;;;3.70;;
16809;SDS011;51744;50.872;4.730;2023-03-17T01:13:36;5.20;;;3.70;;
16809;SDS011;51744;50.872;4.730;2023-03-17T01:16:25;4.80;;;2.63;;
16809;SDS011;51744;50.872;4.730;2023-03-17T01:19:13;5.75;;;3.40;;
16809;SDS011;51744;50.872;4.730;2023-03-17T01:22:01;3.72;;;2.63;;
16809;SDS011;51744;50.872;4.730;2023-03-17T01:24:51;4.53;;;2.50;;
16809;SDS011;51744;50.872;4.730;2023-03-17T01:27:38;5.13;;;2.13;;
16809;SDS011;51744;50.872;4.730;2023-03-17T01:30:29;4.90;;;2.92;;
16809;SDS011;51744;50.872;4.730;2023-03-17T01:33:18;4.78;;;3.42;;
16809;SDS011;51744;50.872;4.730;2023-03-17T01:36:07;4.70;;;3.17;;
16809;SDS011;51744;50.872;4.730;2023-03-17T01:38:56;3.97;;;3.10;;
16809;SDS011;51744;50.872;4.730;2023-03-17T01:41:45;3.58;;;2.42;;
16809;SDS011;51744;50.872;4.730;2023-03-17T01:44:33;3.10;;;2.30;;
16809;SDS011;51744;50.872;4.730;2023-03-17T01:47:21;3.25;;;2.30;;
16809;SDS011;51744;50.872;4.730;2023-03-17T01:50:11;3.95;;;2.92;;
16809;SDS011;51744;50.872;4.730;2023-03-17T01:52:58;5.90;;;4.07;;
16809;SDS011;51744;50.872;4.730;2023-03-17T01:55:45;8.77;;;6.40;;
16809;SDS011;51744;50.872;4.730;2023-03-17T01:58:37;8.90;;;6.40;;
16809;SDS011;51744;50.872;4.730;2023-03-17T02:01:26;6.43;;;4.65;;
16809;SDS011;51744;50.872;4.730;2023-03-17T02:04:18;6.40;;;4.50;;
16809;SDS011;51744;50.872;4.730;2023-03-17T02:07:06;4.63;;;3.22;;
16809;SDS011;51744;50.872;4.730;2023-03-17T02:09:58;4.05;;;3.05;;
16809;SDS011;51744;50.872;4.730;2023-03-17T02:12:47;4.93;;;3.17;;
16809;SDS011;51744;50.872;4.730;2023-03-17T02:15:40;5.88;;;2.47;;
16809;SDS011;51744;50.872;4.730;2023-03-17T02:18:30;3.00;;;2.55;;
16809;SDS011;51744;50.872;4.730;2023-03-17T02:21:30;4.65;;;2.65;;
16809;SDS011;51744;50.872;4.730;2023-03-17T02:24:27;4.65;;;2.15;;
16809;SDS011;51744;50.872;4.730;2023-03-17T02:27:18;4.18;;;2.40;;
16809;SDS011;51744;50.872;4.730;2023-03-17T02:30:12;3.37;;;2.20;;
16809;SDS011;51744;50.872;4.730;2023-03-17T02:33:01;2.23;;;2.00;;
16809;SDS011;51744;50.872;4.730;2023-03-17T02:35:49;3.30;;;2.20;;
16809;SDS011;51744;50.872;4.730;2023-03-17T02:38:38;3.42;;;2.10;;
16809;SDS011;51744;50.872;4.730;2023-03-17T02:41:26;2.90;;;2.20;;
16809;SDS011;51744;50.872;4.730;2023-03-17T02:44:14;3.25;;;1.90;;
16809;SDS011;51744;50.872;4.730;2023-03-17T02:47:02;3.20;;;2.20;;
16809;SDS011;51744;50.872;4.730;2023-03-17T02:49:51;2.92;;;2.10;;
16809;SDS011;51744;50.872;4.730;2023-03-17T02:52:39;4.83;;;2.10;;
16809;SDS011;51744;50.872;4.730;2023-03-17T02:55:28;4.20;;;2.20;;
16809;SDS011;51744;50.872;4.730;2023-03-17T02:58:16;2.72;;;2.08;;
16809;SDS011;51744;50.872;4.730;2023-03-17T03:01:04;3.10;;;2.10;;
16809;SDS011;51744;50.872;4.730;2023-03-17T03:03:53;2.65;;;2.30;;
16809;SDS011;51744;50.872;4.730;2023-03-17T03:06:41;3.45;;;2.20;;
16809;SDS011;51744;50.872;4.730;2023-03-17T03:09:28;3.33;;;2.20;;
16809;SDS011;51744;50.872;4.730;2023-03-17T03:12:17;3.63;;;2.00;;
16809;SDS011;51744;50.872;4.730;2023-03-17T03:15:06;3.03;;;2.10;;
16809;SDS011;51744;50.872;4.730;2023-03-17T03:17:54;2.70;;;2.00;;
16809;SDS011;51744;50.872;4.730;2023-03-17T03:20:42;3.30;;;2.05;;
16809;SDS011;51744;50.872;4.730;2023-03-17T03:23:30;3.05;;;2.00;;
16809;SDS011;51744;50.872;4.730;2023-03-17T03:26:17;2.70;;;2.22;;
16809;SDS011;51744;50.872;4.730;2023-03-17T03:29:07;2.35;;;2.10;;
16809;SDS011;51744;50.872;4.730;2023-03-17T03:31:54;3.97;;;2.20;;
16809;SDS011;51744;50.872;4.730;2023-03-17T03:34:41;2.92;;;2.15;;
16809;SDS011;51744;50.872;4.730;2023-03-17T03:37:29;3.00;;;2.17;;
16809;SDS011;51744;50.872;4.730;2023-03-17T03:40:17;3.10;;;2.10;;
16809;SDS011;51744;50.872;4.730;2023-03-17T03:43:04;3.13;;;2.07;;
16809;SDS011;51744;50.872;4.730;2023-03-17T03:46:09;4.70;;;2.13;;
16809;SDS011;51744;50.872;4.730;2023-03-17T03:48:56;3.17;;;1.88;;
16809;SDS011;51744;50.872;4.730;2023-03-17T03:51:44;2.95;;;2.08;;
16809;SDS011;51744;50.872;4.730;2023-03-17T03:54:31;2.63;;;2.40;;
16809;SDS011;51744;50.872;4.730;2023-03-17T03:57:21;3.55;;;2.10;;
16809;SDS011;51744;50.872;4.730;2023-03-17T04:00:10;2.90;;;2.10;;
16809;SDS011;51744;50.872;4.730;2023-03-17T04:03:01;2.40;;;2.07;;
16809;SDS011;51744;50.872;4.730;2023-03-17T04:05:49;2.58;;;2.00;;
16809;SDS011;51744;50.872;4.730;2023-03-17T04:08:37;2.75;;;2.22;;
16809;SDS011;51744;50.872;4.730;2023-03-17T04:11:24;3.63;;;2.10;;
16809;SDS011;51744;50.872;4.730;2023-03-17T04:14:11;3.30;;;2.28;;
16809;SDS011;51744;50.872;4.730;2023-03-17T04:16:59;2.40;;;2.10;;
16809;SDS011;51744;50.872;4.730;2023-03-17T04:19:48;2.85;;;2.10;;
16809;SDS011;51744;50.872;4.730;2023-03-17T04:22:36;3.10;;;1.90;;
16809;SDS011;51744;50.872;4.730;2023-03-17T04:25:23;3.85;;;2.10;;
16809;SDS011;51744;50.872;4.730;2023-03-17T04:28:11;3.00;;;2.20;;
16809;SDS011;51744;50.872;4.730;2023-03-17T04:30:59;3.08;;;2.00;;
16809;SDS011;51744;50.872;4.730;2023-03-17T04:33:47;3.53;;;2.13;;
16809;SDS011;51744;50.872;4.730;2023-03-17T04:36:36;2.83;;;2.10;;
16809;SDS011;51744;50.872;4.730;2023-03-17T04:39:24;2.67;;;2.13;;
16809;SDS011;51744;50.872;4.730;2023-03-17T04:42:12;3.55;;;2.38;;
16809;SDS011;51744;50.872;4.730;2023-03-17T04:45:00;3.00;;;2.20;;
16809;SDS011;51744;50.872;4.730;2023-03-17T04:47:48;2.87;;;2.10;;
16809;SDS011;51744;50.872;4.730;2023-03-17T04:50:35;2.85;;;2.20;;
16809;SDS011;51744;50.872;4.730;2023-03-17T04:53:24;3.05;;;2.15;;
16809;SDS011;51744;50.872;4.730;2023-03-17T04:56:11;3.15;;;2.10;;
16809;SDS011;51744;50.872;4.730;2023-03-17T04:58:59;2.30;;;2.10;;
16809;SDS011;51744;50.872;4.730;2023-03-17T05:01:46;3.15;;;2.10;;
16809;SDS011;51744;50.872;4.730;2023-03-17T05:04:34;3.70;;;2.10;;
16809;SDS011;51744;50.872;4.730;2023-03-17T05:07:22;3.50;;;2.30;;
16809;SDS011;51744;50.872;4.730;2023-03-17T05:10:12;2.95;;;2.25;;
16809;SDS011;51744;50.872;4.730;2023-03-17T05:12:59;2.73;;;2.10;;
16809;SDS011;51744;50.872;4.730;2023-03-17T05:15:47;3.08;;;2.15;;
16809;SDS011;51744;50.872;4.730;2023-03-17T05:18:36;3.55;;;2.30;;
16809;SDS011;51744;50.872;4.730;2023-03-17T05:21:24;3.13;;;2.15;;
16809;SDS011;51744;50.872;4.730;2023-03-17T05:24:11;3.35;;;2.13;;
16809;SDS011;51744;50.872;4.730;2023-03-17T05:27:01;3.28;;;2.17;;
16809;SDS011;51744;50.872;4.730;2023-03-17T05:29:48;3.53;;;2.23;;
16809;SDS011;51744;50.872;4.730;2023-03-17T05:32:36;3.13;;;2.20;;
16809;SDS011;51744;50.872;4.730;2023-03-17T05:35:23;3.20;;;2.30;;
16809;SDS011;51744;50.872;4.730;2023-03-17T05:38:12;2.90;;;2.23;;
16809;SDS011;51744;50.872;4.730;2023-03-17T05:40:59;3.60;;;2.50;;
16809;SDS011;51744;50.872;4.730;2023-03-17T05:43:50;2.83;;;2.30;;
16809;SDS011;51744;50.872;4.730;2023-03-17T05:46:39;2.83;;;2.33;;
16809;SDS011;51744;50.872;4.730;2023-03-17T05:49:26;2.80;;;2.15;;
16809;SDS011;51744;50.872;4.730;2023-03-17T05:52:14;5.20;;;2.47;;
16809;SDS011;51744;50.872;4.730;2023-03-17T05:55:02;3.05;;;2.30;;
16809;SDS011;51744;50.872;4.730;2023-03-17T05:57:50;3.55;;;2.10;;
16809;SDS011;51744;50.872;4.730;2023-03-17T06:00:40;3.65;;;2.50;;
16809;SDS011;51744;50.872;4.730;2023-03-17T06:03:28;2.70;;;2.20;;
16809;SDS011;51744;50.872;4.730;2023-03-17T06:06:15;3.50;;;2.40;;
16809;SDS011;51744;50.872;4.730;2023-03-17T06:09:02;3.93;;;2.50;;
16809;SDS011;51744;50.872;4.730;2023-03-17T06:11:50;3.63;;;2.30;;
16809;SDS011;51744;50.872;4.730;2023-03-17T06:14:37;3.35;;;2.40;;
16809;SDS011;51744;50.872;4.730;2023-03-17T06:17:26;3.03;;;2.28;;
16809;SDS011;51744;50.872;4.730;2023-03-17T06:20:14;4.37;;;2.60;;
16809;SDS011;51744;50.872;4.730;2023-03-17T06:23:02;5.43;;;2.50;;
16809;SDS011;51744;50.872;4.730;2023-03-17T06:25:50;3.13;;;2.58;;
16809;SDS011;51744;50.872;4.730;2023-03-17T06:28:38;4.40;;;2.50;;
16809;SDS011;51744;50.872;4.730;2023-03-17T06:31:26;6.30;;;2.50;;
16809;SDS011;51744;50.872;4.730;2023-03-17T06:34:14;3.58;;;2.55;;
16809;SDS011;51744;50.872;4.730;2023-03-17T06:37:02;3.67;;;2.40;;
16809;SDS011;51744;50.872;4.730;2023-03-17T06:39:50;4.78;;;2.65;;
16809;SDS011;51744;50.872;4.730;2023-03-17T06:42:38;4.57;;;2.83;;
16809;SDS011;51744;50.872;4.730;2023-03-17T06:45:25;4.55;;;2.70;;
16809;SDS011;51744;50.872;4.730;2023-03-17T06:48:13;3.13;;;2.60;;
16809;SDS011;51744;50.872;4.730;2023-03-17T06:51:02;4.10;;;2.80;;
16809;SDS011;51744;50.872;4.730;2023-03-17T06:53:50;4.55;;;2.60;;
16809;SDS011;51744;50.872;4.730;2023-03-17T06:56:38;4.03;;;2.60;;
16809;SDS011;51744;50.872;4.730;2023-03-17T06:59:25;4.85;;;2.90;;
16809;SDS011;51744;50.872;4.730;2023-03-17T07:02:15;4.10;;;2.90;;
16809;SDS011;51744;50.872;4.730;2023-03-17T07:05:04;4.63;;;2.72;;
16809;SDS011;51744;50.872;4.730;2023-03-17T07:07:54;4.53;;;2.80;;
16809;SDS011;51744;50.872;4.730;2023-03-17T07:10:41;4.68;;;2.83;;
16809;SDS011;51744;50.872;4.730;2023-03-17T07:13:31;3.40;;;2.75;;
16809;SDS011;51744;50.872;4.730;2023-03-17T07:16:22;4.20;;;2.80;;
16809;SDS011;51744;50.872;4.730;2023-03-17T07:19:09;4.43;;;2.78;;
16809;SDS011;51744;50.872;4.730;2023-03-17T07:21:57;5.20;;;3.00;;
16809;SDS011;51744;50.872;4.730;2023-03-17T07:24:47;3.23;;;2.60;;
16809;SDS011;51744;50.872;4.730;2023-03-17T07:27:35;4.18;;;2.72;;
16809;SDS011;51744;50.872;4.730;2023-03-17T07:30:23;4.47;;;2.70;;
16809;SDS011;51744;50.872;4.730;2023-03-17T07:33:11;4.45;;;2.50;;
16809;SDS011;51744;50.872;4.730;2023-03-17T07:35:58;5.07;;;2.80;;
16809;SDS011;51744;50.872;4.730;2023-03-17T07:38:45;4.53;;;2.80;;
16809;SDS011;51744;50.872;4.730;2023-03-17T07:41:35;4.40;;;2.70;;
16809;SDS011;51744;50.872;4.730;2023-03-17T07:44:26;4.25;;;2.70;;
16809;SDS011;51744;50.872;4.730;2023-03-17T07:47:15;5.10;;;2.90;;
16809;SDS011;51744;50.872;4.730;2023-03-17T07:50:03;4.03;;;2.88;;
16809;SDS011;51744;50.872;4.730;2023-03-17T07:52:51;5.50;;;3.05;;
16809;SDS011;51744;50.872;4.730;2023-03-17T07:55:38;4.03;;;2.72;;
16809;SDS011;51744;50.872;4.730;2023-03-17T07:58:27;4.93;;;2.78;;
16809;SDS011;51744;50.872;4.730;2023-03-17T08:01:14;4.63;;;2.90;;
16809;SDS011;51744;50.872;4.730;2023-03-17T08:04:01;4.82;;;2.92;;
16809;SDS011;51744;50.872;4.730;2023-03-17T08:06:50;3.70;;;2.80;;
16809;SDS011;51744;50.872;4.730;2023-03-17T08:09:38;3.55;;;2.92;;
16809;SDS011;51744;50.872;4.730;2023-03-17T08:12:25;4.32;;;2.83;;
16809;SDS011;51744;50.872;4.730;2023-03-17T08:15:15;4.22;;;2.60;;
16809;SDS011;51744;50.872;4.730;2023-03-17T08:18:02;3.95;;;2.80;;
16809;SDS011;51744;50.872;4.730;2023-03-17T08:20:50;4.37;;;2.83;;
16809;SDS011;51744;50.872;4.730;2023-03-17T08:23:37;4.27;;;2.90;;
16809;SDS011;51744;50.872;4.730;2023-03-17T08:26:25;4.18;;;3.00;;
16809;SDS011;51744;50.872;4.730;2023-03-17T08:29:12;4.22;;;2.70;;
16809;SDS011;51744;50.872;4.730;2023-03-17T08:32:02;4.10;;;2.80;;
16809;SDS011;51744;50.872;4.730;2023-03-17T08:34:52;5.07;;;2.97;;
16809;SDS011;51744;50.872;4.730;2023-03-17T08:37:40;4.38;;;2.80;;
16809;SDS011;51744;50.872;4.730;2023-03-17T08:40:28;4.07;;;2.70;;
16809;SDS011;51744;50.872;4.730;2023-03-17T08:43:16;5.93;;;2.95;;
16809;SDS011;51744;50.872;4.730;2023-03-17T08:46:06;5.05;;;3.00;;
16809;SDS011;51744;50.872;4.730;2023-03-17T08:48:58;3.63;;;2.85;;
16809;SDS011;51744;50.872;4.730;2023-03-17T08:51:46;4.93;;;2.97;;
16809;SDS011;51744;50.872;4.730;2023-03-17T08:54:33;3.88;;;2.92;;
16809;SDS011;51744;50.872;4.730;2023-03-17T08:57:21;4.35;;;3.03;;
16809;SDS011;51744;50.872;4.730;2023-03-17T09:00:10;6.07;;;2.80;;
16809;SDS011;51744;50.872;4.730;2023-03-17T09:02:58;5.07;;;2.83;;
16809;SDS011;51744;50.872;4.730;2023-03-17T09:05:48;5.63;;;2.83;;
16809;SDS011;51744;50.872;4.730;2023-03-17T09:08:36;4.43;;;2.97;;
16809;SDS011;51744;50.872;4.730;2023-03-17T09:11:25;5.97;;;3.00;;
16809;SDS011;51744;50.872;4.730;2023-03-17T09:14:15;6.45;;;2.88;;
16809;SDS011;51744;50.872;4.730;2023-03-17T09:17:02;5.07;;;2.80;;
16809;SDS011;51744;50.872;4.730;2023-03-17T09:19:50;4.28;;;2.80;;
16809;SDS011;51744;50.872;4.730;2023-03-17T09:22:39;4.47;;;2.75;;
16809;SDS011;51744;50.872;4.730;2023-03-17T09:25:26;5.60;;;2.65;;
16809;SDS011;51744;50.872;4.730;2023-03-17T09:28:14;6.47;;;2.97;;
16809;SDS011;51744;50.872;4.730;2023-03-17T09:31:03;5.28;;;2.63;;
16809;SDS011;51744;50.872;4.730;2023-03-17T09:33:56;5.28;;;3.00;;
16809;SDS011;51744;50.872;4.730;2023-03-17T09:36:44;4.68;;;2.83;;
16809;SDS011;51744;50.872;4.730;2023-03-17T09:39:32;5.25;;;3.08;;
16809;SDS011;51744;50.872;4.730;2023-03-17T09:42:23;4.30;;;2.80;;
16809;SDS011;51744;50.872;4.730;2023-03-17T09:45:29;4.20;;;2.93;;
16809;SDS011;51744;50.872;4.730;2023-03-17T09:48:38;5.25;;;2.95;;
16809;SDS011;51744;50.872;4.730;2023-03-17T09:51:32;4.67;;;2.70;;
16809;SDS011;51744;50.872;4.730;2023-03-17T09:54:23;4.75;;;2.78;;
16809;SDS011;51744;50.872;4.730;2023-03-17T09:57:15;4.15;;;3.00;;
16809;SDS011;51744;50.872;4.730;2023-03-17T10:00:10;3.92;;;2.70;;
16809;SDS011;51744;50.872;4.730;2023-03-17T10:03:00;5.25;;;2.80;;
16809;SDS011;51744;50.872;4.730;2023-03-17T10:05:48;3.63;;;2.70;;
16809;SDS011;51744;50.872;4.730;2023-03-17T10:08:36;3.90;;;3.05;;
16809;SDS011;51744;50.872;4.730;2023-03-17T10:11:32;3.70;;;2.50;;
16809;SDS011;51744;50.872;4.730;2023-03-17T10:14:45;5.40;;;2.95;;
16809;SDS011;51744;50.872;4.730;2023-03-17T10:17:40;3.40;;;2.72;;
16809;SDS011;51744;50.872;4.730;2023-03-17T10:20:29;3.53;;;2.45;;
16809;SDS011;51744;50.872;4.730;2023-03-17T10:23:21;4.78;;;2.80;;
16809;SDS011;51744;50.872;4.730;2023-03-17T10:26:15;5.25;;;2.67;;
16809;SDS011;51744;50.872;4.730;2023-03-17T10:29:13;3.77;;;2.40;;
16809;SDS011;51744;50.872;4.730;2023-03-17T10:32:03;4.60;;;2.45;;
16809;SDS011;51744;50.872;4.730;2023-03-17T10:34:51;4.03;;;2.40;;
16809;SDS011;51744;50.872;4.730;2023-03-17T10:37:39;4.68;;;2.67;;
16809;SDS011;51744;50.872;4.730;2023-03-17T10:40:28;3.75;;;2.50;;
16809;SDS011;51744;50.872;4.730;2023-03-17T10:43:18;5.47;;;2.72;;
16809;SDS011;51744;50.872;4.730;2023-03-17T10:46:14;4.13;;;2.53;;
16809;SDS011;51744;50.872;4.730;2023-03-17T10:49:07;4.22;;;2.50;;
16809;SDS011;51744;50.872;4.730;2023-03-17T10:52:04;4.43;;;2.83;;
16809;SDS011;51744;50.872;4.730;2023-03-17T10:54:52;3.97;;;2.70;;
16809;SDS011;51744;50.872;4.730;2023-03-17T10:57:46;4.85;;;2.58;;
16809;SDS011;51744;50.872;4.730;2023-03-17T11:00:38;3.15;;;2.50;;
16809;SDS011;51744;50.872;4.730;2023-03-17T11:03:40;4.80;;;2.63;;
16809;SDS011;51744;50.872;4.730;2023-03-17T11:06:31;5.13;;;2.97;;
16809;SDS011;51744;50.872;4.730;2023-03-17T11:09:23;3.80;;;2.70;;
16809;SDS011;51744;50.872;4.730;2023-03-17T11:12:20;3.58;;;2.60;;
16809;SDS011;51744;50.872;4.730;2023-03-17T11:15:11;4.05;;;2.70;;
16809;SDS011;51744;50.872;4.730;2023-03-17T11:18:01;4.25;;;2.75;;
16809;SDS011;51744;50.872;4.730;2023-03-17T11:20:53;3.20;;;2.55;;
16809;SDS011;51744;50.872;4.730;2023-03-17T11:23:47;5.13;;;3.00;;
16809;SDS011;51744;50.872;4.730;2023-03-17T11:26:46;4.20;;;2.83;;
16809;SDS011;51744;50.872;4.730;2023-03-17T11:29:47;3.70;;;2.72;;
16809;SDS011;51744;50.872;4.730;2023-03-17T11:32:52;3.80;;;2.63;;
16809;SDS011;51744;50.872;4.730;2023-03-17T11:35:47;5.57;;;2.75;;
16809;SDS011;51744;50.872;4.730;2023-03-17T11:38:42;5.50;;;2.78;;
16809;SDS011;51744;50.872;4.730;2023-03-17T11:41:44;3.37;;;2.50;;
16809;SDS011;51744;50.872;4.730;2023-03-17T11:44:59;4.22;;;2.85;;
16809;SDS011;51744;50.872;4.730;2023-03-17T11:48:17;4.68;;;2.80;;
16809;SDS011;51744;50.872;4.730;2023-03-17T11:51:15;5.82;;;3.00;;
16809;SDS011;51744;50.872;4.730;2023-03-17T11:54:10;4.35;;;2.85;;
16809;SDS011;51744;50.872;4.730;2023-03-17T11:57:07;4.63;;;2.80;;
16809;SDS011;51744;50.872;4.730;2023-03-17T12:00:00;4.90;;;2.80;;
16809;SDS011;51744;50.872;4.730;2023-03-17T12:02:58;4.05;;;2.67;;
16809;SDS011;51744;50.872;4.730;2023-03-17T12:05:55;5.05;;;2.97;;
16809;SDS011;51744;50.872;4.730;2023-03-17T12:08:47;6.10;;;2.93;;
16809;SDS011;51744;50.872;4.730;2023-03-17T12:11:41;5.47;;;2.90;;
16809;SDS011;51744;50.872;4.730;2023-03-17T12:14:31;6.68;;;3.05;;
16809;SDS011;51744;50.872;4.730;2023-03-17T12:17:22;6.45;;;3.00;;
16809;SDS011;51744;50.872;4.730;2023-03-17T12:20:17;6.03;;;3.10;;
16809;SDS011;51744;50.872;4.730;2023-03-17T12:23:10;4.75;;;2.88;;
16809;SDS011;51744;50.872;4.730;2023-03-17T12:26:04;5.18;;;3.20;;
16809;SDS011;51744;50.872;4.730;2023-03-17T12:28:57;7.07;;;2.90;;
16809;SDS011;51744;50.872;4.730;2023-03-17T12:31:51;4.72;;;2.90;;
16809;SDS011;51744;50.872;4.730;2023-03-17T12:34:44;7.25;;;3.00;;
16809;SDS011;51744;50.872;4.730;2023-03-17T12:37:37;5.88;;;3.03;;
16809;SDS011;51744;50.872;4.730;2023-03-17T12:40:26;5.05;;;2.90;;
16809;SDS011;51744;50.872;4.730;2023-03-17T12:43:29;5.80;;;2.83;;
16809;SDS011;51744;50.872;4.730;2023-03-17T12:46:47;4.87;;;2.80;;
16809;SDS011;51744;50.872;4.730;2023-03-17T12:50:04;6.40;;;2.90;;
16809;SDS011;51744;50.872;4.730;2023-03-17T12:53:15;4.28;;;2.90;;
16809;SDS011;51744;50.872;4.730;2023-03-17T12:56:15;5.80;;;2.90;;
16809;SDS011;51744;50.872;4.730;2023-03-17T12:59:07;5.68;;;2.90;;
16809;SDS011;51744;50.872;4.730;2023-03-17T13:02:11;3.90;;;2.70;;
16809;SDS011;51744;50.872;4.730;2023-03-17T13:05:04;5.90;;;3.00;;
16809;SDS011;51744;50.872;4.730;2023-03-17T13:07:54;5.00;;;2.70;;
16809;SDS011;51744;50.872;4.730;2023-03-17T13:10:43;4.83;;;2.80;;
16809;SDS011;51744;50.872;4.730;2023-03-17T13:13:39;4.05;;;2.60;;
16809;SDS011;51744;50.872;4.730;2023-03-17T13:16:31;3.30;;;2.60;;
16809;SDS011;51744;50.872;4.730;2023-03-17T13:19:21;5.22;;;2.50;;
16809;SDS011;51744;50.872;4.730;2023-03-17T13:22:32;4.03;;;2.47;;
16809;SDS011;51744;50.872;4.730;2023-03-17T13:25:28;4.97;;;2.50;;
16809;SDS011;51744;50.872;4.730;2023-03-17T13:28:23;5.80;;;2.47;;
16809;SDS011;51744;50.872;4.730;2023-03-17T13:34:22;3.90;;;2.60;;
16809;SDS011;51744;50.872;4.730;2023-03-17T13:37:16;4.65;;;2.40;;
16809;SDS011;51744;50.872;4.730;2023-03-17T13:40:13;4.05;;;2.40;;
16809;SDS011;51744;50.872;4.730;2023-03-17T13:43:08;3.97;;;2.70;;
16809;SDS011;51744;50.872;4.730;2023-03-17T13:46:17;4.43;;;2.80;;
16809;SDS011;51744;50.872;4.730;2023-03-17T13:49:13;4.75;;;2.50;;
16809;SDS011;51744;50.872;4.730;2023-03-17T13:52:11;4.18;;;2.45;;
16809;SDS011;51744;50.872;4.730;2023-03-17T13:55:02;4.68;;;2.55;;
16809;SDS011;51744;50.872;4.730;2023-03-17T13:58:21;3.95;;;2.60;;
16809;SDS011;51744;50.872;4.730;2023-03-17T14:01:11;5.75;;;2.83;;
16809;SDS011;51744;50.872;4.730;2023-03-17T14:04:01;4.70;;;2.93;;
16809;SDS011;51744;50.872;4.730;2023-03-17T14:06:52;4.37;;;2.77;;
16809;SDS011;51744;50.872;4.730;2023-03-17T14:09:43;3.95;;;2.70;;
16809;SDS011;51744;50.872;4.730;2023-03-17T14:12:32;3.47;;;2.40;;
16809;SDS011;51744;50.872;4.730;2023-03-17T14:15:26;3.90;;;2.63;;
16809;SDS011;51744;50.872;4.730;2023-03-17T14:18:18;5.38;;;2.55;;
16809;SDS011;51744;50.872;4.730;2023-03-17T14:21:17;5.47;;;2.37;;
16809;SDS011;51744;50.872;4.730;2023-03-17T14:24:15;4.05;;;2.40;;
16809;SDS011;51744;50.872;4.730;2023-03-17T14:27:06;5.80;;;2.47;;
16809;SDS011;51744;50.872;4.730;2023-03-17T14:30:07;4.07;;;2.57;;
16809;SDS011;51744;50.872;4.730;2023-03-17T14:33:02;4.00;;;2.20;;
16809;SDS011;51744;50.872;4.730;2023-03-17T14:35:54;4.15;;;2.30;;
16809;SDS011;51744;50.872;4.730;2023-03-17T14:38:46;3.80;;;2.38;;
16809;SDS011;51744;50.872;4.730;2023-03-17T14:41:35;6.25;;;2.30;;
16809;SDS011;51744;50.872;4.730;2023-03-17T14:44:24;4.10;;;2.20;;
16809;SDS011;51744;50.872;4.730;2023-03-17T14:47:13;4.18;;;2.22;;
16809;SDS011;51744;50.872;4.730;2023-03-17T14:50:05;5.10;;;2.10;;
16809;SDS011;51744;50.872;4.730;2023-03-17T14:53:03;5.88;;;2.40;;
16809;SDS011;51744;50.872;4.730;2023-03-17T14:55:57;4.97;;;2.35;;
16809;SDS011;51744;50.872;4.730;2023-03-17T14:58:47;4.07;;;2.50;;
16809;SDS011;51744;50.872;4.730;2023-03-17T15:01:41;5.22;;;2.50;;
16809;SDS011;51744;50.872;4.730;2023-03-17T15:04:31;4.47;;;2.22;;
16809;SDS011;51744;50.872;4.730;2023-03-17T15:07:28;4.50;;;2.30;;
16809;SDS011;51744;50.872;4.730;2023-03-17T15:10:18;6.10;;;2.42;;
16809;SDS011;51744;50.872;4.730;2023-03-17T15:13:09;4.00;;;2.30;;
16809;SDS011;51744;50.872;4.730;2023-03-17T15:15:57;4.35;;;2.42;;
16809;SDS011;51744;50.872;4.730;2023-03-17T15:18:54;4.20;;;2.40;;
16809;SDS011;51744;50.872;4.730;2023-03-17T15:21:49;4.23;;;2.30;;
16809;SDS011;51744;50.872;4.730;2023-03-17T15:24:37;5.43;;;2.47;;
16809;SDS011;51744;50.872;4.730;2023-03-17T15:27:25;4.35;;;2.58;;
16809;SDS011;51744;50.872;4.730;2023-03-17T15:30:14;3.63;;;2.35;;
16809;SDS011;51744;50.872;4.730;2023-03-17T15:33:03;4.03;;;2.47;;
16809;SDS011;51744;50.872;4.730;2023-03-17T15:36:07;4.80;;;2.38;;
16809;SDS011;51744;50.872;4.730;2023-03-17T15:39:16;5.47;;;2.60;;
16809;SDS011;51744;50.872;4.730;2023-03-17T15:42:04;6.78;;;2.47;;
16809;SDS011;51744;50.872;4.730;2023-03-17T15:44:52;4.45;;;2.40;;
16809;SDS011;51744;50.872;4.730;2023-03-17T15:47:40;5.78;;;2.33;;
16809;SDS011;51744;50.872;4.730;2023-03-17T15:50:30;4.60;;;2.30;;
16809;SDS011;51744;50.872;4.730;2023-03-17T15:53:20;3.97;;;2.30;;
16809;SDS011;51744;50.872;4.730;2023-03-17T15:56:11;2.92;;;2.00;;
16809;SDS011;51744;50.872;4.730;2023-03-17T15:59:03;3.90;;;2.70;;
16809;SDS011;51744;50.872;4.730;2023-03-17T16:01:51;4.30;;;2.50;;
16809;SDS011;51744;50.872;4.730;2023-03-17T16:04:39;4.72;;;2.50;;
16809;SDS011;51744;50.872;4.730;2023-03-17T16:07:26;5.40;;;2.78;;
16809;SDS011;51744;50.872;4.730;2023-03-17T16:10:17;5.20;;;3.47;;
16809;SDS011;51744;50.872;4.730;2023-03-17T16:13:06;5.97;;;3.80;;
16809;SDS011;51744;50.872;4.730;2023-03-17T16:15:54;3.05;;;2.28;;
16809;SDS011;51744;50.872;4.730;2023-03-17T16:18:44;5.10;;;2.50;;
16809;SDS011;51744;50.872;4.730;2023-03-17T16:21:32;4.90;;;2.95;;
16809;SDS011;51744;50.872;4.730;2023-03-17T16:24:20;5.00;;;2.88;;
16809;SDS011;51744;50.872;4.730;2023-03-17T16:27:13;5.70;;;3.08;;
16809;SDS011;51744;50.872;4.730;2023-03-17T16:30:00;4.35;;;2.35;;
16809;SDS011;51744;50.872;4.730;2023-03-17T16:32:49;5.38;;;2.70;;
16809;SDS011;51744;50.872;4.730;2023-03-17T16:35:38;5.55;;;4.80;;
16809;SDS011;51744;50.872;4.730;2023-03-17T16:38:26;3.80;;;2.87;;
16809;SDS011;51744;50.872;4.730;2023-03-17T16:41:16;6.30;;;3.30;;
16809;SDS011;51744;50.872;4.730;2023-03-17T16:44:08;7.33;;;3.37;;
16809;SDS011;51744;50.872;4.730;2023-03-17T16:46:57;5.47;;;3.47;;
16809;SDS011;51744;50.872;4.730;2023-03-17T16:49:45;5.30;;;3.10;;
16809;SDS011;51744;50.872;4.730;2023-03-17T16:52:33;4.53;;;2.70;;
16809;SDS011;51744;50.872;4.730;2023-03-17T16:55:21;4.57;;;2.70;;
16809;SDS011;51744;50.872;4.730;2023-03-17T16:58:13;5.00;;;2.70;;
16809;SDS011;51744;50.872;4.730;2023-03-17T17:01:08;4.80;;;2.50;;
16809;SDS011;51744;50.872;4.730;2023-03-17T17:03:59;4.70;;;2.53;;
16809;SDS011;51744;50.872;4.730;2023-03-17T17:06:47;6.10;;;3.10;;
16809;SDS011;51744;50.872;4.730;2023-03-17T17:09:36;5.03;;;2.40;;
16809;SDS011;51744;50.872;4.730;2023-03-17T17:12:23;6.13;;;3.45;;
16809;SDS011;51744;50.872;4.730;2023-03-17T17:15:11;6.55;;;3.60;;